Strona główna
METAR-TAF:

METAR-TAF

Lotnisko :

Port lotniczy Jayapura-Sentani

Jayapura, Indonezja

Szerokość geograficzna: 02-34-37S, Długość geograficzna: 140-30-58E, wysokość: 88 m

Aktualna obserwacja pogody

Raport powstał 43 minut temu, godzina 04:30 UTC
Wiatr 8 kt od zachód
Temperatura 30°C
Wilgotność 66%
Ciśnienie 1006 hPa
Widzialność 10 km lub więcej
Mało chmury na wysokości 1200 ft, Cumulonimbus.
Rozproszone chmury na wysokości 1300 ft
przelotny w pobliże

METAR: WAJJ 070430Z 27008KT 9999 VCSH FEW012CB SCT013 30/23 Q1006 NOSIG

czas: 12:13 (05:13 UTC)


TAF: brakujący

Obserwacja i prognoza pogody dla ponad 4000 lotnisk (raport METAR i TAF).

Dostępne stacje oznaczono żółtymi i czerwonymi punktami na mapie.

Najedź kursorem aby zobaczyć nazwę stacji.

Kliknij aby zobaczyć obserwacje i prognozy pogody.

Aby zmienić mapę: kliknij na zielony przycisk z czarnym krzyżykiem, aby powiększyć; na zielony przycisk z myślnikiem, aby pomniejszyć; na zielone strzałki, aby przejść do map sąsiednich.


METAR-TAF: